Time;durP1;ratioP1;P1;durP2;ratioP2;P2;SDS_P1;SDS_P2;PMS_P1;PMS_P2;Temp;Humidity;BMP_temperature;BMP_pressure;BME280_temperature;BME280_humidity;BME280_pressure;Samples;Min_cycle;Max_cycle;Signal;HPM_P1;HPM_P2
2022/06/20 00:00:32;;;;;;;3.05;1.67;;;;;;;22.17;58.73;96061.78;10377371;28;20030;-21
2022/06/20 00:05:36;;;;;;;7.57;3.78;;;;;;;22.03;59.23;96058.72;10372834;28;20033;-20
2022/06/20 00:10:41;;;;;;;4.60;2.22;;;;;;;21.94;59.18;96053.84;10372662;28;20065;-21
2022/06/20 00:15:42;;;;;;;6.20;3.17;;;;;;;21.89;59.03;96053.09;10371450;28;20128;-21
2022/06/20 00:20:43;;;;;;;8.05;3.95;;;;;;;21.87;58.69;96052.31;10372871;28;20751;-21
2022/06/20 00:25:43;;;;;;;6.85;4.25;;;;;;;21.85;59.08;96045.56;10371965;28;20034;-21
2022/06/20 00:30:44;;;;;;;7.97;3.80;;;;;;;21.85;59.15;96059.16;10372027;28;20088;-21
2022/06/20 00:35:45;;;;;;;8.40;3.70;;;;;;;21.97;61.04;96058.84;10372105;28;20511;-21
2022/06/20 00:40:49;;;;;;;3.42;2.45;;;;;;;22.17;59.10;96071.97;10372037;28;20635;-21
2022/06/20 00:45:52;;;;;;;6.93;3.90;;;;;;;22.09;59.36;96053.47;10395236;28;20037;-21
2022/06/20 00:50:56;;;;;;;7.40;3.75;;;;;;;21.97;58.77;96048.66;10409670;28;20178;-21
2022/06/20 00:56:07;;;;;;;6.97;3.67;;;;;;;21.93;58.85;96054.72;10371246;28;20037;-21
2022/06/20 01:01:12;;;;;;;6.22;3.78;;;;;;;21.90;58.84;96044.56;10371298;28;20148;-22
2022/06/20 01:06:35;;;;;;;9.55;4.07;;;;;;;21.90;58.97;96061.59;10371116;28;20038;-21
2022/06/20 01:11:43;;;;;;;6.13;3.67;;;;;;;21.89;58.86;96081.13;10370094;28;20078;-21
2022/06/20 01:16:43;;;;;;;6.38;4.70;;;;;;;21.88;59.28;96087.09;10369751;28;20045;-22
2022/06/20 01:21:44;;;;;;;2.37;2.00;;;;;;;22.11;59.03;96091.66;10370064;28;20037;-21
2022/06/20 01:27:09;;;;;;;1.77;1.67;;;;;;;22.12;59.29;96091.63;10369682;28;20037;-20
2022/06/20 01:32:11;;;;;;;4.72;3.15;;;;;;;22.01;58.58;96101.25;10369745;28;20099;-22
2022/06/20 01:37:25;;;;;;;7.90;3.20;;;;;;;21.92;58.58;96090.41;10368779;28;20574;-22
2022/06/20 01:42:28;;;;;;;5.70;3.70;;;;;;;21.88;58.87;96086.28;10368485;28;20519;-22
2022/06/20 01:47:29;;;;;;;5.72;3.42;;;;;;;21.87;58.80;96094.78;10406363;28;20116;-21
2022/06/20 01:52:40;;;;;;;7.10;3.60;;;;;;;21.83;58.88;96111.88;10404018;28;20079;-21
2022/06/20 01:57:45;;;;;;;6.88;3.10;;;;;;;21.83;58.89;96128.88;10396187;28;20057;-21
2022/06/20 02:03:06;;;;;;;4.18;2.60;;;;;;;21.99;59.44;96128.47;10368602;28;20532;-22
2022/06/20 02:08:07;;;;;;;3.05;1.70;;;;;;;22.17;58.62;96137.41;10368366;28;20045;-22
2022/06/20 02:13:10;;;;;;;4.70;3.17;;;;;;;22.05;58.76;96141.06;10367289;28;20492;-23
2022/06/20 02:18:12;;;;;;;3.47;3.17;;;;;;;21.96;58.64;96148.94;10367949;28;20033;-23
2022/06/20 02:23:19;;;;;;;6.43;3.97;;;;;;;21.89;58.75;96142.31;10368012;28;20046;-22
2022/06/20 02:28:43;;;;;;;3.97;3.60;;;;;;;21.89;58.73;96139.75;10368212;28;20049;-22
2022/06/20 02:33:46;;;;;;;5.57;3.60;;;;;;;21.87;58.92;96138.94;10367647;28;20077;-21
2022/06/20 02:38:47;;;;;;;7.38;3.83;;;;;;;21.88;58.81;96140.63;10367403;28;20034;-21
2022/06/20 02:44:01;;;;;;;8.65;4.30;;;;;;;21.98;60.00;96129.34;10374672;28;20472;-22
2022/06/20 02:49:04;;;;;;;2.85;2.40;;;;;;;22.13;59.60;96151.13;10408492;28;20065;-21
2022/06/20 02:54:10;;;;;;;2.58;2.38;;;;;;;22.17;59.73;96152.72;10401610;28;20124;-22
2022/06/20 02:59:18;;;;;;;;;;;;;;;22.09;59.79;96160.53;10382990;28;20053;-24
2022/06/20 03:04:20;;;;;;;5.30;3.97;;;;;;;22.06;59.11;96169.97;10365406;28;19917;-22
2022/06/20 03:09:26;;;;;;;7.13;5.32;;;;;;;22.00;59.00;96162.47;10364583;28;20047;-22
2022/06/20 03:14:51;;;;;;;8.40;4.70;;;;;;;22.03;58.80;96160.69;10365823;28;20084;-22
2022/06/20 03:19:57;;;;;;;6.30;4.63;;;;;;;22.01;59.08;96161.56;10366492;28;20487;-21
2022/06/20 03:24:58;;;;;;;;;;;;;;;22.02;59.58;96169.19;10365844;28;20329;-22
2022/06/20 03:30:18;;;;;;;6.30;4.93;;;;;;;22.09;61.60;96186.03;10366075;28;19917;-23
2022/06/20 03:35:20;;;;;;;2.65;2.45;;;;;;;22.25;59.28;96195.03;10365962;28;20036;-24
2022/06/20 03:40:20;;;;;;;5.38;2.83;;;;;;;22.18;60.06;96190.06;10387705;28;20440;-22
2022/06/20 03:45:23;;;;;;;6.72;4.45;;;;;;;22.29;61.00;96201.72;10395346;28;20068;-21
2022/06/20 03:50:28;;;;;;;6.03;3.70;;;;;;;22.76;59.11;96198.06;10413452;28;20029;-21
2022/06/20 03:55:52;;;;;;;7.93;4.07;;;;;;;22.34;59.71;96191.41;10414158;28;20087;-22
2022/06/20 04:01:08;;;;;;;8.70;3.50;;;;;;;22.33;58.33;96236.47;10373376;28;20037;-26
2022/06/20 04:06:17;;;;;;;9.07;2.90;;;;;;;22.28;58.30;96223.00;10372434;28;20038;-27
2022/06/20 04:11:21;;;;;;;6.70;3.40;;;;;;;22.26;58.11;96223.91;10372515;28;20488;-21
2022/06/20 04:16:43;;;;;;;4.35;3.20;;;;;;;22.45;57.20;96227.72;10372401;28;20030;-21
2022/06/20 04:21:56;;;;;;;6.47;3.00;;;;;;;22.39;57.61;96204.91;10374126;28;20033;-22
2022/06/20 04:26:59;;;;;;;6.85;3.28;;;;;;;22.30;57.98;96228.88;10374705;28;20046;-22
2022/06/20 04:32:17;;;;;;;5.97;3.95;;;;;;;22.66;57.72;96220.41;10374285;28;20029;-25
2022/06/20 04:37:25;;;;;;;6.85;3.25;;;;;;;22.79;56.83;96239.66;10373867;28;20069;-23
2022/06/20 04:42:45;;;;;;;8.48;3.03;;;;;;;23.05;56.34;96255.16;10373105;28;20044;-22
2022/06/20 04:48:04;;;;;;;7.57;4.43;;;;;;;22.96;55.90;96246.88;10414531;28;20044;-21
2022/06/20 04:53:09;;;;;;;9.27;3.10;;;;;;;22.65;56.48;96257.00;10409497;28;20045;-21
2022/06/20 04:58:15;;;;;;;10.55;3.60;;;;;;;22.38;58.00;96275.47;10393576;28;20107;-23
2022/06/20 05:03:20;;;;;;;3.30;2.00;;;;;;;22.47;57.26;96241.31;10369753;28;20042;-22
2022/06/20 05:08:28;;;;;;;8.53;3.27;;;;;;;22.30;58.20;96241.66;10370225;28;20117;-21
2022/06/20 05:13:43;;;;;;;5.85;2.70;;;;;;;22.15;57.94;96244.53;10368299;28;20044;-23
2022/06/20 05:18:50;;;;;;;7.22;2.92;;;;;;;22.03;57.99;96237.16;10385937;28;20038;-22
2022/06/20 05:23:55;;;;;;;8.27;3.30;;;;;;;22.05;58.37;96257.53;10370110;28;20029;-23
2022/06/20 05:28:59;;;;;;;7.63;2.92;;;;;;;21.99;58.45;96261.03;10370128;28;20052;-21
2022/06/20 05:34:11;;;;;;;11.25;3.15;;;;;;;21.92;58.72;96239.09;10369021;28;20112;-20
2022/06/20 05:39:25;;;;;;;12.35;3.50;;;;;;;21.94;58.60;96256.91;10368383;28;20022;-22
2022/06/20 05:44:25;;;;;;;5.88;2.30;;;;;;;22.09;58.79;96252.34;10381284;28;20071;-23
2022/06/20 05:49:32;;;;;;;1.73;1.63;;;;;;;22.28;58.03;96253.59;10408599;28;20110;-22
2022/06/20 05:54:37;;;;;;;6.15;2.95;;;;;;;22.14;58.17;96245.41;10404444;28;20486;-21
2022/06/20 05:59:46;;;;;;;3.22;2.30;;;;;;;22.06;58.20;96256.66;10379978;28;20037;-21
2022/06/20 06:04:58;;;;;;;4.82;2.72;;;;;;;22.01;58.42;96254.22;10368424;28;20026;-22
2022/06/20 06:10:03;;;;;;;4.68;3.08;;;;;;;21.99;58.38;96255.91;10368499;28;20037;-21
2022/06/20 06:15:31;;;;;;;6.05;3.35;;;;;;;21.98;58.56;96259.34;10367709;28;20139;-21
2022/06/20 06:20:32;;;;;;;6.15;3.20;;;;;;;21.97;58.60;96278.06;10368680;28;20041;-23
2022/06/20 06:25:37;;;;;;;4.32;2.70;;;;;;;21.97;58.61;96280.63;10367417;28;20044;-21
2022/06/20 06:30:56;;;;;;;2.75;1.83;;;;;;;22.14;58.91;96281.09;10367727;28;20042;-21
2022/06/20 06:36:17;;;;;;;1.73;1.50;;;;;;;22.25;58.47;96299.59;10367086;28;20104;-22
2022/06/20 06:41:24;;;;;;;2.13;1.92;;;;;;;22.12;58.40;96298.16;10366994;28;20043;-21
2022/06/20 06:46:33;;;;;;;6.72;2.83;;;;;;;22.05;58.31;96301.69;10395433;28;20040;-22
2022/06/20 06:51:46;;;;;;;3.05;2.58;;;;;;;22.01;58.48;96305.19;10395969;28;20075;-23
2022/06/20 06:56:55;;;;;;;3.35;3.00;;;;;;;21.99;58.43;96306.09;10400838;28;20161;-21
2022/06/20 07:02:02;;;;;;;3.58;2.67;;;;;;;21.98;58.66;96305.22;10366906;28;20030;-22
2022/06/20 07:07:25;;;;;;;3.70;3.30;;;;;;;21.98;58.44;96317.16;10366299;28;20030;-23
2022/06/20 07:12:55;;;;;;;3.33;2.72;;;;;;;22.00;59.11;96318.81;10366687;28;20081;-22
2022/06/20 07:18:03;;;;;;;2.30;1.90;;;;;;;22.20;58.73;96311.56;10366327;28;20129;-22
2022/06/20 07:23:06;;;;;;;1.88;1.75;;;;;;;22.22;58.75;96314.94;10368054;28;20084;-23
2022/06/20 07:28:18;;;;;;;2.08;1.85;;;;;;;22.10;58.18;96305.00;10374692;28;20034;-22
2022/06/20 07:33:37;;;;;;;3.75;2.05;;;;;;;22.02;58.36;96304.31;10373701;28;20063;-22
2022/06/20 07:38:50;;;;;;;4.93;2.45;;;;;;;22.07;58.58;96314.41;10374047;28;20476;-23
2022/06/20 07:44:03;;;;;;;3.72;3.17;;;;;;;22.02;58.75;96311.97;10381158;28;20037;-25
2022/06/20 07:49:11;;;;;;;3.45;3.10;;;;;;;21.99;58.78;96312.00;10415310;28;20051;-21
2022/06/20 07:54:27;;;;;;;3.20;2.88;;;;;;;21.99;58.70;96313.72;10411468;28;20175;-22
2022/06/20 07:59:40;;;;;;;5.40;3.65;;;;;;;22.00;59.63;96303.50;10386506;28;20120;-21
2022/06/20 08:04:44;;;;;;;2.65;2.20;;;;;;;22.23;58.85;96303.03;10372728;28;20041;-23
2022/06/20 08:10:00;;;;;;;2.90;2.10;;;;;;;22.21;58.96;96305.59;10373082;28;20050;-21
2022/06/20 08:15:08;;;;;;;4.28;2.72;;;;;;;22.12;58.43;96302.41;10372195;28;20026;-22
2022/06/20 08:20:11;;;;;;;3.38;2.40;;;;;;;22.05;58.74;96314.44;10372845;28;20048;-22
2022/06/20 08:25:20;;;;;;;4.70;3.03;;;;;;;22.02;58.59;96311.97;10371881;28;20033;-21
2022/06/20 08:30:43;;;;;;;4.00;2.75;;;;;;;22.03;58.54;96307.69;10371736;28;20046;-22
2022/06/20 08:36:19;;;;;;;3.40;3.10;;;;;;;22.03;58.70;96313.63;10371213;28;20050;-23
2022/06/20 08:41:41;;;;;;;4.30;2.90;;;;;;;22.04;58.76;96322.97;10371464;28;20742;-22
2022/06/20 08:47:02;;;;;;;3.60;3.30;;;;;;;22.10;60.29;96322.84;10402040;28;20414;-21
2022/06/20 08:52:29;;;;;;;1.65;1.55;;;;;;;22.28;58.37;96324.16;10405167;28;20041;-23
2022/06/20 08:57:30;;;;;;;2.35;2.15;;;;;;;22.21;59.06;96328.56;10399908;28;20500;-22
2022/06/20 09:02:57;;;;;;;4.03;3.17;;;;;;;22.12;58.39;96333.84;10370770;28;20041;-22
2022/06/20 09:08:18;;;;;;;3.42;2.85;;;;;;;22.14;58.97;96329.53;10370668;28;20112;-21
2022/06/20 09:13:36;;;;;;;5.10;3.30;;;;;;;22.13;58.90;96330.41;10369820;28;20168;-21
2022/06/20 09:18:55;;;;;;;4.65;3.58;;;;;;;22.13;58.95;96325.31;10371065;28;20025;-22
2022/06/20 09:24:25;;;;;;;3.28;3.00;;;;;;;22.13;60.01;96314.31;10369628;28;20127;-22
2022/06/20 09:29:47;;;;;;;3.83;3.53;;;;;;;22.08;58.54;96322.00;10369674;28;20100;-21
2022/06/20 09:35:12;;;;;;;3.70;3.00;;;;;;;22.19;60.13;96304.81;10369002;28;20029;-21
2022/06/20 09:40:40;;;;;;;1.70;1.60;;;;;;;22.34;58.47;96309.59;10369920;28;20044;-24
2022/06/20 09:45:52;;;;;;;3.55;2.25;;;;;;;22.21;58.86;96299.66;10390539;28;20033;-23
2022/06/20 09:51:26;;;;;;;4.03;2.55;;;;;;;22.10;58.68;96288.84;10397805;28;20084;-21
2022/06/20 09:56:52;;;;;;;3.28;2.60;;;;;;;22.14;59.41;96293.84;10405543;28;20045;-23
2022/06/20 10:02:04;;;;;;;3.88;2.92;;;;;;;22.07;58.70;96294.84;10368886;28;20167;-24
2022/06/20 10:07:17;;;;;;;4.95;3.40;;;;;;;22.06;58.71;96288.06;10368138;28;20183;-24
2022/06/20 10:12:31;;;;;;;3.55;3.22;;;;;;;22.08;58.88;96280.41;10367674;28;20037;-22
2022/06/20 10:18:09;;;;;;;3.95;3.08;;;;;;;22.08;58.70;96275.31;10367945;28;20477;-21
2022/06/20 10:23:25;;;;;;;4.10;1.75;;;;;;;22.23;59.25;96275.81;10362513;28;20682;-21
2022/06/20 10:28:32;;;;;;;;;;;;;;;22.32;58.66;96270.50;10368024;28;20034;-23
2022/06/20 10:33:50;;;;;;;4.43;2.30;;;;;;;22.17;58.79;96270.00;10367414;28;20005;-23
2022/06/20 10:39:03;;;;;;;2.58;2.30;;;;;;;22.12;58.69;96271.81;10367533;28;20036;-22
2022/06/20 10:44:19;;;;;;;4.13;2.53;;;;;;;22.06;58.68;96271.94;10376470;28;20029;-23
2022/06/20 10:49:29;;;;;;;;;;;;;;;22.07;58.59;96276.19;10388136;28;20456;-21
2022/06/20 10:54:34;;;;;;;4.35;2.75;;;;;;;22.03;58.78;96280.50;10401955;28;19917;-22
2022/06/20 10:59:46;;;;;;;5.93;2.28;;;;;;;22.04;59.22;96284.72;10375725;28;20026;-22
2022/06/20 11:05:01;;;;;;;4.72;2.95;;;;;;;22.07;58.83;96278.72;10366331;28;20038;-22
2022/06/20 11:10:23;;;;;;;3.65;2.47;;;;;;;22.24;59.30;96281.75;10366644;28;20760;-22
2022/06/20 11:15:38;;;;;;;2.13;1.33;;;;;;;22.26;58.13;96269.81;10366168;28;20037;-23
2022/06/20 11:20:52;;;;;;;3.05;2.17;;;;;;;22.20;58.67;96275.88;10366396;28;20070;-21
2022/06/20 11:26:26;;;;;;;3.00;2.47;;;;;;;22.15;58.57;96281.97;10365596;28;20037;-21
2022/06/20 11:31:52;;;;;;;5.95;3.30;;;;;;;22.12;58.71;96279.44;10393288;28;20048;-22
2022/06/20 11:37:11;;;;;;;3.67;3.33;;;;;;;22.12;58.85;96287.09;10420952;28;20037;-23
2022/06/20 11:42:21;;;;;;;4.45;3.30;;;;;;;22.09;58.82;96284.63;10430443;28;20048;-21
2022/06/20 11:47:24;;;;;;;3.40;3.10;;;;;;;22.09;59.36;96270.19;10428599;28;20068;-22
2022/06/20 11:52:38;;;;;;;5.32;3.13;;;;;;;22.12;59.53;96277.75;10416567;28;20049;-21
2022/06/20 11:57:41;;;;;;;2.67;2.00;;;;;;;22.26;59.91;96269.81;10414827;28;20058;-22
2022/06/20 12:02:48;;;;;;;2.25;1.50;;;;;;;22.36;58.63;96269.56;10408979;28;20033;-23
2022/06/20 12:07:55;;;;;;;3.60;2.67;;;;;;;22.27;58.95;96271.47;10414797;28;20491;-21
2022/06/20 12:13:22;;;;;;;7.75;3.28;;;;;;;22.19;58.93;96286.94;10409548;28;20080;-21
2022/06/20 12:23:18;;;;;;;8.32;3.13;;;;;;;22.20;59.95;96286.06;10412636;28;20476;-21
2022/06/20 12:24:08;;;;;;;9.77;3.53;;;;;;;22.09;59.12;96285.47;10401346;28;20041;-22
2022/06/20 12:29:23;;;;;;;5.38;4.03;;;;;;;22.16;59.02;96299.75;10387899;28;20038;-21
2022/06/20 12:34:45;;;;;;;8.75;4.28;;;;;;;22.16;59.00;96304.84;10371317;28;20045;-21
2022/06/20 12:40:25;;;;;;;10.27;4.00;;;;;;;22.15;58.83;96295.53;10372083;28;20041;-21
2022/06/20 12:45:49;;;;;;;4.65;2.40;;;;;;;22.31;59.76;96301.97;10391293;28;20409;-21
2022/06/20 12:51:14;;;;;;;3.05;1.63;;;;;;;22.35;59.30;96311.25;10406391;28;20068;-21
2022/06/20 12:56:24;;;;;;;3.35;2.08;;;;;;;22.25;59.07;96314.88;10407378;28;20072;-23
2022/06/20 13:01:38;;;;;;;3.05;2.50;;;;;;;22.20;59.13;96319.22;10370892;28;20479;-22
2022/06/20 13:07:00;;;;;;;6.00;3.13;;;;;;;22.18;58.71;96317.56;10370506;28;20041;-21
2022/06/20 13:12:25;;;;;;;6.40;3.22;;;;;;;22.16;59.02;96322.69;10370834;28;20038;-23
2022/06/20 13:17:56;;;;;;;4.95;3.60;;;;;;;22.16;59.37;96339.72;10370736;28;20417;-21
2022/06/20 13:23:26;;;;;;;3.20;2.95;;;;;;;22.16;59.49;96350.75;10369507;28;20105;-21
2022/06/20 13:28:40;;;;;;;8.32;3.13;;;;;;;22.16;59.04;96332.91;10369466;28;20045;-21
2022/06/20 13:33:53;;;;;;;2.50;1.98;;;;;;;22.34;59.12;96332.53;10369624;28;20045;-22
2022/06/20 13:39:32;;;;;;;2.20;1.98;;;;;;;22.37;59.85;96329.06;10409820;28;20056;-21
2022/06/20 13:44:46;;;;;;;4.35;2.50;;;;;;;22.26;58.92;96333.56;10390357;28;20462;-21
2022/06/20 13:50:16;;;;;;;2.65;2.35;;;;;;;22.22;59.33;96329.41;10393949;28;20076;-22
2022/06/20 13:55:19;;;;;;;3.58;2.78;;;;;;;22.19;58.86;96340.50;10413015;28;20091;-21
2022/06/20 14:00:27;;;;;;;7.07;3.08;;;;;;;22.17;58.99;96337.16;10369292;28;20477;-20
2022/06/20 14:05:28;;;;;;;4.97;3.50;;;;;;;22.18;58.94;96338.84;10367768;28;20041;-23
2022/06/20 14:10:34;;;;;;;4.25;2.65;;;;;;;22.18;58.92;96343.94;10368100;28;20456;-22
2022/06/20 14:15:37;;;;;;;4.05;3.13;;;;;;;22.15;58.83;96343.97;10367825;28;20087;-24
2022/06/20 14:20:56;;;;;;;2.45;1.90;;;;;;;22.33;59.77;96337.66;10367913;28;20061;-21
2022/06/20 14:26:00;;;;;;;2.10;1.63;;;;;;;22.42;58.89;96338.34;10368243;28;20213;-21
2022/06/20 14:31:20;;;;;;;4.13;1.65;;;;;;;22.29;58.82;96341.13;10367924;28;20057;-21
2022/06/20 14:36:32;;;;;;;2.78;2.40;;;;;;;22.20;58.84;96337.09;10380649;28;20136;-22
2022/06/20 14:41:41;;;;;;;3.22;1.95;;;;;;;22.15;58.93;96343.97;10396615;28;20444;-22
2022/06/20 14:46:50;;;;;;;7.65;2.15;;;;;;;22.14;58.89;96344.03;10383223;28;20358;-21
2022/06/20 14:52:06;;;;;;;3.75;2.85;;;;;;;22.11;58.70;96347.47;10375374;28;20076;-22
2022/06/20 14:57:14;;;;;;;7.33;3.30;;;;;;;22.11;59.16;96355.13;10407010;28;20037;-21
2022/06/20 15:02:29;;;;;;;4.28;2.10;;;;;;;22.09;58.97;96358.56;10402064;28;20047;-22
2022/06/20 15:07:51;;;;;;;6.70;3.22;;;;;;;22.20;60.48;96354.94;10399901;28;20650;-23
2022/06/20 15:12:57;;;;;;;1.60;1.27;;;;;;;22.40;59.23;96351.97;10392061;28;20049;-21
2022/06/20 15:18:42;;;;;;;4.20;2.15;;;;;;;22.29;59.07;96351.34;10367669;28;20042;-24
2022/06/20 15:23:49;;;;;;;2.97;1.95;;;;;;;22.18;58.76;96349.03;10366176;28;20110;-22
2022/06/20 15:29:16;;;;;;;2.30;2.00;;;;;;;22.15;58.81;96351.63;10366710;28;20463;-22
2022/06/20 15:34:37;;;;;;;4.15;2.13;;;;;;;22.11;58.75;96346.63;10365405;28;20048;-22
2022/06/20 15:40:01;;;;;;;3.83;2.35;;;;;;;22.10;58.85;96350.91;10365933;28;20105;-21
2022/06/20 15:45:12;;;;;;;5.35;2.20;;;;;;;22.07;58.86;96345.84;10397798;28;20193;-21
2022/06/20 15:50:12;;;;;;;7.47;2.90;;;;;;;22.06;58.93;96349.25;10402363;28;20040;-22
2022/06/20 15:55:15;;;;;;;2.80;2.40;;;;;;;22.16;60.99;96345.66;10414488;28;20420;-22
2022/06/20 16:00:24;;;;;;;2.38;2.10;;;;;;;22.37;59.50;96335.00;10376480;28;20042;-20
2022/06/20 16:05:42;;;;;;;2.17;1.60;;;;;;;22.33;59.78;96356.34;10372805;28;20034;-22
2022/06/20 16:11:05;;;;;;;4.10;1.95;;;;;;;22.22;58.91;96357.47;10372722;28;20403;-22
2022/06/20 16:16:10;;;;;;;8.05;3.08;;;;;;;22.05;61.36;96357.78;10412842;28;20037;-21
2022/06/20 16:21:20;;;;;;;9.98;2.38;;;;;;;22.13;60.52;96350.81;10373558;28;20327;-21
2022/06/20 16:26:28;;;;;;;8.13;2.90;;;;;;;22.17;60.16;96356.69;10371257;28;20040;-23
2022/06/20 16:31:31;;;;;;;5.43;2.40;;;;;;;22.17;59.64;96355.00;10372303;28;20034;-22
2022/06/20 16:36:34;;;;;;;8.68;3.53;;;;;;;22.26;61.35;96349.72;10371825;28;20060;-23
2022/06/20 16:41:48;;;;;;;2.45;1.40;;;;;;;22.47;59.61;96351.00;10372179;28;20041;-22
2022/06/20 16:47:00;;;;;;;3.78;2.03;;;;;;;22.37;59.80;96344.38;10402889;28;20562;-22
2022/06/20 16:52:00;;;;;;;4.03;1.77;;;;;;;22.27;59.30;96343.75;10404889;28;20120;-22
2022/06/20 16:57:27;;;;;;;6.77;2.80;;;;;;;22.23;60.54;96342.09;10415196;28;20032;-21
2022/06/20 17:02:43;;;;;;;;;;;;;;;22.22;61.97;96342.16;10400577;28;20773;-21
2022/06/20 17:08:05;;;;;;;3.58;2.40;;;;;;;22.19;59.45;96349.84;10412957;28;19917;-21
2022/06/20 17:13:27;;;;;;;3.53;2.58;;;;;;;22.18;59.60;96354.13;10368944;28;20041;-21
2022/06/20 17:18:43;;;;;;;7.38;2.83;;;;;;;22.18;59.46;96345.63;10370358;28;20109;-24
2022/06/20 17:23:43;;;;;;;5.00;2.83;;;;;;;22.29;61.13;96359.84;10369793;28;20607;-21
2022/06/20 17:28:53;;;;;;;1.40;1.27;;;;;;;22.48;59.44;96361.16;10369744;28;20148;-21
2022/06/20 17:34:05;;;;;;;4.00;2.20;;;;;;;22.41;59.88;96362.16;10377054;28;20044;-21
2022/06/20 17:39:30;;;;;;;3.75;2.00;;;;;;;22.31;59.17;96372.56;10397546;28;20100;-22
2022/06/20 17:44:48;;;;;;;5.03;2.55;;;;;;;22.27;59.70;96371.78;10405385;28;20033;-21
2022/06/20 17:50:24;;;;;;;4.47;3.17;;;;;;;22.25;59.57;96376.09;10405187;28;20114;-20
2022/06/20 17:55:39;;;;;;;6.13;3.00;;;;;;;22.11;59.61;96361.91;10402426;28;20029;-21
2022/06/20 18:00:50;;;;;;;4.38;3.50;;;;;;;22.23;59.86;96385.47;10399998;28;20721;-21
2022/06/20 18:05:56;;;;;;;3.88;2.70;;;;;;;22.22;59.41;96383.78;10409520;28;20037;-22
2022/06/20 18:11:00;;;;;;;4.10;2.73;;;;;;;22.27;60.08;96379.44;10401089;28;20500;-21
2022/06/20 18:16:11;;;;;;;1.63;1.40;;;;;;;22.49;59.27;96388.34;10406521;28;20048;-21
2022/06/20 18:21:19;;;;;;;1.65;1.50;;;;;;;22.44;59.46;96392.72;10417470;28;20113;-22
2022/06/20 18:26:36;;;;;;;2.65;1.92;;;;;;;22.33;58.88;96384.41;10391420;28;20275;-23
2022/06/20 18:31:39;;;;;;;;;;;;;;;22.27;59.02;96384.53;10368473;28;20089;-23
2022/06/20 18:36:40;;;;;;;5.95;2.85;;;;;;;22.23;58.86;96392.28;10366812;28;19959;-21
2022/06/20 18:41:59;;;;;;;5.15;2.47;;;;;;;22.21;58.73;96392.31;10367436;28;20095;-21
2022/06/20 18:47:22;;;;;;;4.72;2.33;;;;;;;22.19;58.95;96386.41;10400280;28;20048;-23
2022/06/20 18:52:32;;;;;;;4.30;2.80;;;;;;;22.19;58.98;96385.56;10397804;28;20044;-21
2022/06/20 18:57:59;;;;;;;3.15;2.80;;;;;;;22.18;59.11;96383.88;10394889;28;20033;-22
2022/06/20 19:03:06;;;;;;;4.25;1.77;;;;;;;22.45;60.20;96389.31;10367111;28;20030;-22
2022/06/20 19:08:21;;;;;;;2.85;1.50;;;;;;;22.53;59.94;96379.78;10366873;28;20049;-22
2022/06/20 19:13:50;;;;;;;4.72;2.00;;;;;;;22.40;59.85;96377.47;10391134;28;20512;-21
2022/06/20 19:19:21;;;;;;;5.18;2.53;;;;;;;22.32;59.01;96387.81;10368438;28;20171;-22
2022/06/20 19:24:32;;;;;;;3.58;2.85;;;;;;;22.27;58.94;96389.66;10450448;28;20429;-21
2022/06/20 19:29:35;;;;;;;2.53;2.33;;;;;;;22.24;59.14;96393.97;10398950;28;20178;-21
2022/06/20 19:34:47;;;;;;;4.03;2.25;;;;;;;22.22;58.91;96403.38;10385193;28;20400;-22
2022/06/20 19:39:57;;;;;;;2.38;2.00;;;;;;;22.20;58.85;96407.63;10390896;28;20399;-21
2022/06/20 19:45:20;;;;;;;5.22;3.13;;;;;;;22.32;61.07;96413.34;10430346;28;20045;-20
2022/06/20 19:50:23;;;;;;;3.65;1.50;;;;;;;22.53;59.85;96412.94;10419672;28;20115;-21
2022/06/20 19:55:46;;;;;;;1.42;1.23;;;;;;;22.50;59.69;96412.97;10416288;28;20124;-23
2022/06/20 20:00:48;;;;;;;3.90;2.40;;;;;;;22.78;60.44;96414.09;10389311;28;20475;-22
2022/06/20 20:05:50;;;;;;;4.72;2.80;;;;;;;22.44;59.03;96422.47;10439630;28;20035;-23
2022/06/20 20:11:01;;;;;;;6.03;2.95;;;;;;;22.35;59.00;96438.81;10456910;28;20036;-22
2022/06/20 20:16:07;;;;;;;4.65;2.78;;;;;;;22.29;58.84;96438.06;10373654;28;20042;-24
2022/06/20 20:21:29;;;;;;;5.20;2.88;;;;;;;22.27;58.91;96440.66;10373007;28;20034;-22
2022/06/20 20:26:30;;;;;;;3.95;2.60;;;;;;;22.25;58.92;96446.66;10372047;28;20037;-22
2022/06/20 20:31:44;;;;;;;4.45;2.35;;;;;;;22.22;58.88;96447.53;10434654;28;20044;-23
2022/06/20 20:37:05;;;;;;;1.75;1.50;;;;;;;22.45;59.47;96447.97;10410668;28;20532;-21
2022/06/20 20:42:32;;;;;;;0.90;0.82;;;;;;;22.51;59.14;96455.53;10370206;28;20022;-22
2022/06/20 20:47:36;;;;;;;2.85;1.90;;;;;;;22.38;58.94;96448.94;10408983;28;20033;-23
2022/06/20 20:52:48;;;;;;;2.97;2.05;;;;;;;22.32;58.93;96455.88;10388601;28;20036;-22
2022/06/20 20:57:54;;;;;;;3.53;2.35;;;;;;;22.27;58.81;96455.97;10407920;28;20026;-23
2022/06/20 21:03:02;;;;;;;3.77;2.43;;;;;;;22.21;58.87;96450.09;10412231;28;20037;-22
2022/06/20 21:08:29;;;;;;;3.88;2.13;;;;;;;22.22;58.68;96450.09;10376802;28;20076;-22
2022/06/20 21:13:35;;;;;;;3.53;2.50;;;;;;;22.21;58.86;96461.16;10367533;28;20136;-21
2022/06/20 21:18:37;;;;;;;3.17;2.05;;;;;;;22.20;58.96;96456.09;10370814;28;20088;-21
2022/06/20 21:23:42;;;;;;;2.10;1.50;;;;;;;22.38;59.77;96459.13;10369575;28;20088;-22
2022/06/20 21:28:45;;;;;;;1.90;1.15;;;;;;;22.53;58.87;96453.78;10370569;28;20061;-23
2022/06/20 21:33:56;;;;;;;1.88;1.60;;;;;;;22.39;59.01;96453.16;10369266;28;20034;-23
2022/06/20 21:38:59;;;;;;;2.08;1.42;;;;;;;22.31;58.84;96460.13;10370396;28;20041;-21
2022/06/20 21:44:04;;;;;;;2.13;1.98;;;;;;;22.25;58.85;96457.69;10377946;28;20053;-21
2022/06/20 21:49:05;;;;;;;4.82;1.80;;;;;;;22.21;58.85;96450.97;10411101;28;20037;-24
2022/06/20 21:54:12;;;;;;;5.05;2.53;;;;;;;22.19;58.86;96447.59;10400590;28;20041;-22
2022/06/20 21:59:17;;;;;;;3.63;1.92;;;;;;;22.19;58.81;96447.59;10387311;28;20040;-22
2022/06/20 22:04:29;;;;;;;2.72;1.75;;;;;;;22.14;58.90;96438.38;10409738;28;20103;-21
2022/06/20 22:09:34;;;;;;;3.03;2.30;;;;;;;22.25;60.29;96451.75;10409709;28;20530;-23
2022/06/20 22:14:48;;;;;;;1.52;1.42;;;;;;;22.47;58.93;96440.31;10379909;28;20400;-21
2022/06/20 22:19:49;;;;;;;1.15;1.05;;;;;;;22.44;58.88;96448.00;10368936;28;20042;-22
2022/06/20 22:24:49;;;;;;;4.47;1.65;;;;;;;22.33;58.76;96460.91;10368034;28;20038;-21
2022/06/20 22:30:15;;;;;;;1.73;1.58;;;;;;;22.24;58.46;96453.44;10367713;28;20058;-23
2022/06/20 22:35:26;;;;;;;1.90;1.50;;;;;;;22.19;58.75;96462.91;10367426;28;20513;-23
2022/06/20 22:40:30;;;;;;;2.08;1.90;;;;;;;22.18;58.66;96463.78;10368225;28;20036;-22
2022/06/20 22:45:33;;;;;;;3.85;1.80;;;;;;;22.16;58.69;96468.06;10388331;28;20062;-22
2022/06/20 22:50:45;;;;;;;3.35;1.20;;;;;;;22.17;58.70;96468.91;10399598;28;20387;-21
2022/06/20 22:56:00;;;;;;;1.33;1.23;;;;;;;22.14;58.82;96461.31;10407543;28;20404;-21
2022/06/20 23:01:34;;;;;;;1.55;1.40;;;;;;;22.38;58.63;96463.38;10367399;28;20535;-22
2022/06/20 23:06:34;;;;;;;1.35;1.25;;;;;;;22.48;58.07;96459.84;10366012;28;20045;-22
2022/06/20 23:11:35;;;;;;;1.53;1.43;;;;;;;22.33;58.47;96476.22;10366669;28;20500;-22
2022/06/20 23:21:54;;;;;;;1.73;1.30;;;;;;;22.18;58.49;96476.53;10373587;28;20711;-23
2022/06/20 23:26:55;;;;;;;2.35;1.45;;;;;;;22.16;58.58;96474.88;10400408;28;20057;-21
2022/06/20 23:31:57;;;;;;;1.30;1.10;;;;;;;22.15;58.55;96486.78;10366569;28;20519;-21
2022/06/20 23:37:00;;;;;;;2.55;0.93;;;;;;;22.13;58.60;96501.25;10365855;28;20034;-21
2022/06/20 23:42:02;;;;;;;1.52;1.02;;;;;;;22.11;58.57;96490.25;10368107;28;20076;-21
2022/06/20 23:47:03;;;;;;;0.93;0.93;;;;;;;22.17;58.66;96468.91;10406847;28;20415;-22
2022/06/20 23:52:06;;;;;;;1.20;1.10;;;;;;;22.41;57.96;96479.50;10405363;28;20044;-21
2022/06/20 23:57:07;;;;;;;1.00;0.90;;;;;;;22.38;58.21;96487.19;10401938;28;20060;-22
